テヘラン の空港の天気 - METARとTAF

メヘラーバード国際空港(テヘラン) ( OIII / THR ) - イラン テヘラン
飛行場実況気象(Metar)
観測時間10/20 07:30 IRST (10/20 04:00 UTC)
風向・風速静穏 0m/s
視程10km以上
天気現象
全天の4割程度の雲 雲底高度 1220m
全天の8割程度の雲 雲底高度 3050m
気温19℃
湿度26%
気圧1022hPa
METAROIII 200400Z 00000KT 9999 SCT040 BKN100 19/M01 Q1022 A3018
過去の天気等 Google飛行場航空写真 Wunderground天気予報

過去48時間のMETAR

飛行場予報(TAF)
発表時間: 10/20 02:30 IRST (10/19 23:00 UTC)
予報対象時間: 20日3時 IRST ~ 21日9時 IRST
風向・風速北西 3m/s
視程8000m
少しの雲 雲底高度 3050m
20日10時 IRST ~ 20日11時 IRST に徐々に
少しの塔状積雲 雲底高度 1070m
全天の4割程度の雲 雲底高度 1220m
20日12時 IRST ~ 20日17時 IRST に一時的に
風向・風速西北西 13m/s
視程5000m
20日18時 IRST ~ 20日20時 IRST に徐々に
少しの雲 雲底高度 1220m
TAF OIII 192300Z 2000/2106 32006KT 8000 FEW100
BECMG 2007/2008 FEW035TCU SCT040
TEMPO 2009/2014 30026KT 5000 TSSHRA/SA SCT035CB SCT040 BKN090
BECMG 2015/2017 FEW040